sensor_id;sensor_type;location;lat;lon;timestamp;temperature;humidity
22779;DHT22;11556;51.194;3.800;2023-04-01T00:02:18;11.10;99.90
22779;DHT22;11556;51.194;3.800;2023-04-01T00:04:43;11.10;99.90
22779;DHT22;11556;51.194;3.800;2023-04-01T00:07:09;11.10;99.90
22779;DHT22;11556;51.194;3.800;2023-04-01T00:09:34;11.10;99.90
22779;DHT22;11556;51.194;3.800;2023-04-01T00:12:00;11.20;99.90
22779;DHT22;11556;51.194;3.800;2023-04-01T00:14:26;11.20;99.90
22779;DHT22;11556;51.194;3.800;2023-04-01T00:16:52;11.20;99.90
22779;DHT22;11556;51.194;3.800;2023-04-01T00:19:18;11.30;99.90
22779;DHT22;11556;51.194;3.800;2023-04-01T00:21:43;11.30;99.90
22779;DHT22;11556;51.194;3.800;2023-04-01T00:24:09;11.30;99.90
22779;DHT22;11556;51.194;3.800;2023-04-01T00:26:35;11.20;99.90
22779;DHT22;11556;51.194;3.800;2023-04-01T00:29:01;11.30;99.90
22779;DHT22;11556;51.194;3.800;2023-04-01T00:31:26;11.30;99.90
22779;DHT22;11556;51.194;3.800;2023-04-01T00:33:52;11.30;99.90
22779;DHT22;11556;51.194;3.800;2023-04-01T00:36:20;11.40;99.90
22779;DHT22;11556;51.194;3.800;2023-04-01T00:38:47;11.30;99.90
22779;DHT22;11556;51.194;3.800;2023-04-01T00:41:13;11.30;99.90
22779;DHT22;11556;51.194;3.800;2023-04-01T00:43:41;11.30;99.90
22779;DHT22;11556;51.194;3.800;2023-04-01T00:46:07;11.30;99.90
22779;DHT22;11556;51.194;3.800;2023-04-01T00:48:39;11.40;99.90
22779;DHT22;11556;51.194;3.800;2023-04-01T00:53:41;11.20;99.90
22779;DHT22;11556;51.194;3.800;2023-04-01T00:56:25;11.10;99.90
22779;DHT22;11556;51.194;3.800;2023-04-01T00:59:14;11.10;99.90
22779;DHT22;11556;51.194;3.800;2023-04-01T01:01:41;11.10;99.90
22779;DHT22;11556;51.194;3.800;2023-04-01T01:04:07;11.20;99.90
22779;DHT22;11556;51.194;3.800;2023-04-01T01:06:40;11.20;99.90
22779;DHT22;11556;51.194;3.800;2023-04-01T01:09:25;11.20;99.90
22779;DHT22;11556;51.194;3.800;2023-04-01T01:12:03;11.20;99.90
22779;DHT22;11556;51.194;3.800;2023-04-01T01:14:50;11.10;99.90
22779;DHT22;11556;51.194;3.800;2023-04-01T01:19:58;11.10;99.90
22779;DHT22;11556;51.194;3.800;2023-04-01T01:22:45;11.20;99.90
22779;DHT22;11556;51.194;3.800;2023-04-01T01:25:40;11.10;99.90
22779;DHT22;11556;51.194;3.800;2023-04-01T01:28:26;11.10;99.90
22779;DHT22;11556;51.194;3.800;2023-04-01T01:30:57;11.20;99.90
22779;DHT22;11556;51.194;3.800;2023-04-01T01:33:39;11.10;99.90
22779;DHT22;11556;51.194;3.800;2023-04-01T01:36:09;11.20;99.90
22779;DHT22;11556;51.194;3.800;2023-04-01T01:38:36;11.10;99.90
22779;DHT22;11556;51.194;3.800;2023-04-01T01:41:03;11.10;99.90
22779;DHT22;11556;51.194;3.800;2023-04-01T01:43:36;11.10;99.90
22779;DHT22;11556;51.194;3.800;2023-04-01T01:46:16;11.10;99.90
22779;DHT22;11556;51.194;3.800;2023-04-01T01:48:44;11.10;99.90
22779;DHT22;11556;51.194;3.800;2023-04-01T01:51:10;11.20;99.90
22779;DHT22;11556;51.194;3.800;2023-04-01T01:53:36;11.10;99.90
22779;DHT22;11556;51.194;3.800;2023-04-01T01:56:03;11.10;99.90
22779;DHT22;11556;51.194;3.800;2023-04-01T01:58:33;11.10;99.90
22779;DHT22;11556;51.194;3.800;2023-04-01T02:01:10;11.10;99.90
22779;DHT22;11556;51.194;3.800;2023-04-01T02:03:39;11.10;99.90
22779;DHT22;11556;51.194;3.800;2023-04-01T02:06:11;11.10;99.90
22779;DHT22;11556;51.194;3.800;2023-04-01T02:08:56;11.10;99.90
22779;DHT22;11556;51.194;3.800;2023-04-01T02:11:46;11.10;99.90
22779;DHT22;11556;51.194;3.800;2023-04-01T02:14:23;11.00;99.90
22779;DHT22;11556;51.194;3.800;2023-04-01T02:17:09;11.00;99.90
22779;DHT22;11556;51.194;3.800;2023-04-01T02:19:49;11.00;99.90
22779;DHT22;11556;51.194;3.800;2023-04-01T02:22:20;11.00;99.90
22779;DHT22;11556;51.194;3.800;2023-04-01T02:24:48;11.00;99.90
22779;DHT22;11556;51.194;3.800;2023-04-01T02:27:14;11.00;99.90
22779;DHT22;11556;51.194;3.800;2023-04-01T02:29:40;11.10;99.90
22779;DHT22;11556;51.194;3.800;2023-04-01T02:32:06;11.20;99.90
22779;DHT22;11556;51.194;3.800;2023-04-01T02:34:32;11.10;99.90
22779;DHT22;11556;51.194;3.800;2023-04-01T02:36:58;11.00;99.90
22779;DHT22;11556;51.194;3.800;2023-04-01T02:39:24;11.00;99.90
22779;DHT22;11556;51.194;3.800;2023-04-01T02:41:52;10.90;99.90
22779;DHT22;11556;51.194;3.800;2023-04-01T02:44:17;11.00;99.90
22779;DHT22;11556;51.194;3.800;2023-04-01T02:46:43;10.90;99.90
22779;DHT22;11556;51.194;3.800;2023-04-01T02:49:09;10.80;99.90
22779;DHT22;11556;51.194;3.800;2023-04-01T02:51:34;10.80;99.90
22779;DHT22;11556;51.194;3.800;2023-04-01T02:54:00;10.90;99.90
22779;DHT22;11556;51.194;3.800;2023-04-01T02:56:26;11.00;99.90
22779;DHT22;11556;51.194;3.800;2023-04-01T02:58:53;10.90;99.90
22779;DHT22;11556;51.194;3.800;2023-04-01T03:01:20;10.90;99.90
22779;DHT22;11556;51.194;3.800;2023-04-01T03:03:46;10.90;99.90
22779;DHT22;11556;51.194;3.800;2023-04-01T03:06:13;10.90;99.90
22779;DHT22;11556;51.194;3.800;2023-04-01T03:08:39;10.80;99.90
22779;DHT22;11556;51.194;3.800;2023-04-01T03:11:05;10.80;99.90
22779;DHT22;11556;51.194;3.800;2023-04-01T03:13:31;10.80;99.90
22779;DHT22;11556;51.194;3.800;2023-04-01T03:15:57;10.80;99.90
22779;DHT22;11556;51.194;3.800;2023-04-01T03:18:22;10.70;99.90
22779;DHT22;11556;51.194;3.800;2023-04-01T03:20:48;10.80;99.90
22779;DHT22;11556;51.194;3.800;2023-04-01T03:23:14;10.80;99.90
22779;DHT22;11556;51.194;3.800;2023-04-01T03:25:41;10.90;99.90
22779;DHT22;11556;51.194;3.800;2023-04-01T03:28:07;10.90;99.90
22779;DHT22;11556;51.194;3.800;2023-04-01T03:30:32;10.90;99.90
22779;DHT22;11556;51.194;3.800;2023-04-01T03:32:59;11.00;99.90
22779;DHT22;11556;51.194;3.800;2023-04-01T03:35:26;10.90;99.90
22779;DHT22;11556;51.194;3.800;2023-04-01T03:37:52;10.90;99.90
22779;DHT22;11556;51.194;3.800;2023-04-01T03:40:18;10.70;99.90
22779;DHT22;11556;51.194;3.800;2023-04-01T03:42:43;10.80;99.90
22779;DHT22;11556;51.194;3.800;2023-04-01T03:45:09;10.70;99.90
22779;DHT22;11556;51.194;3.800;2023-04-01T03:47:35;10.70;99.90
22779;DHT22;11556;51.194;3.800;2023-04-01T03:50:01;10.60;99.90
22779;DHT22;11556;51.194;3.800;2023-04-01T03:52:27;10.70;99.90
22779;DHT22;11556;51.194;3.800;2023-04-01T03:54:52;10.60;99.90
22779;DHT22;11556;51.194;3.800;2023-04-01T03:57:18;10.60;99.90
22779;DHT22;11556;51.194;3.800;2023-04-01T03:59:43;10.60;99.90
22779;DHT22;11556;51.194;3.800;2023-04-01T04:02:09;10.60;99.90
22779;DHT22;11556;51.194;3.800;2023-04-01T04:04:35;10.60;99.90
22779;DHT22;11556;51.194;3.800;2023-04-01T04:07:01;10.60;99.90
22779;DHT22;11556;51.194;3.800;2023-04-01T04:09:26;10.60;99.90
22779;DHT22;11556;51.194;3.800;2023-04-01T04:11:52;10.60;99.90
22779;DHT22;11556;51.194;3.800;2023-04-01T04:14:17;10.60;99.90
22779;DHT22;11556;51.194;3.800;2023-04-01T04:16:43;10.60;99.90
22779;DHT22;11556;51.194;3.800;2023-04-01T04:19:09;10.60;99.90
22779;DHT22;11556;51.194;3.800;2023-04-01T04:21:35;10.50;99.90
22779;DHT22;11556;51.194;3.800;2023-04-01T04:24:01;10.50;99.90
22779;DHT22;11556;51.194;3.800;2023-04-01T04:26:27;10.50;99.90
22779;DHT22;11556;51.194;3.800;2023-04-01T04:28:54;10.50;99.90
22779;DHT22;11556;51.194;3.800;2023-04-01T04:31:21;10.50;99.90
22779;DHT22;11556;51.194;3.800;2023-04-01T04:33:47;10.50;99.90
22779;DHT22;11556;51.194;3.800;2023-04-01T04:36:13;10.50;99.90
22779;DHT22;11556;51.194;3.800;2023-04-01T04:38:40;10.60;99.90
22779;DHT22;11556;51.194;3.800;2023-04-01T04:41:14;10.70;99.90
22779;DHT22;11556;51.194;3.800;2023-04-01T04:43:41;10.70;99.90
22779;DHT22;11556;51.194;3.800;2023-04-01T04:46:08;10.70;99.90
22779;DHT22;11556;51.194;3.800;2023-04-01T04:48:34;10.60;99.90
22779;DHT22;11556;51.194;3.800;2023-04-01T04:51:00;10.60;99.90
22779;DHT22;11556;51.194;3.800;2023-04-01T04:53:26;10.50;99.90
22779;DHT22;11556;51.194;3.800;2023-04-01T04:55:51;10.60;99.90
22779;DHT22;11556;51.194;3.800;2023-04-01T04:58:17;10.60;99.90
22779;DHT22;11556;51.194;3.800;2023-04-01T05:00:44;10.70;99.90
22779;DHT22;11556;51.194;3.800;2023-04-01T05:03:11;10.70;99.90
22779;DHT22;11556;51.194;3.800;2023-04-01T05:05:36;10.60;99.90
22779;DHT22;11556;51.194;3.800;2023-04-01T05:08:03;10.60;99.90
22779;DHT22;11556;51.194;3.800;2023-04-01T05:10:29;10.60;99.90
22779;DHT22;11556;51.194;3.800;2023-04-01T05:12:54;10.60;99.90
22779;DHT22;11556;51.194;3.800;2023-04-01T05:15:20;10.60;99.90
22779;DHT22;11556;51.194;3.800;2023-04-01T05:17:46;10.60;99.90
22779;DHT22;11556;51.194;3.800;2023-04-01T05:20:13;10.60;99.90
22779;DHT22;11556;51.194;3.800;2023-04-01T05:22:39;10.60;99.90
22779;DHT22;11556;51.194;3.800;2023-04-01T05:25:05;10.80;99.90
22779;DHT22;11556;51.194;3.800;2023-04-01T05:27:31;10.60;99.90
22779;DHT22;11556;51.194;3.800;2023-04-01T05:29:57;10.60;99.90
22779;DHT22;11556;51.194;3.800;2023-04-01T05:32:22;10.60;99.90
22779;DHT22;11556;51.194;3.800;2023-04-01T05:34:51;10.50;99.90
22779;DHT22;11556;51.194;3.800;2023-04-01T05:37:17;10.60;99.90
22779;DHT22;11556;51.194;3.800;2023-04-01T05:39:42;10.60;99.90
22779;DHT22;11556;51.194;3.800;2023-04-01T05:42:08;10.50;99.90
22779;DHT22;11556;51.194;3.800;2023-04-01T05:44:34;10.50;99.90
22779;DHT22;11556;51.194;3.800;2023-04-01T05:47:01;10.50;99.90
22779;DHT22;11556;51.194;3.800;2023-04-01T05:49:26;10.50;99.90
22779;DHT22;11556;51.194;3.800;2023-04-01T05:51:52;10.40;99.90
22779;DHT22;11556;51.194;3.800;2023-04-01T05:54:18;10.60;99.90
22779;DHT22;11556;51.194;3.800;2023-04-01T05:56:44;10.50;99.90
22779;DHT22;11556;51.194;3.800;2023-04-01T05:59:10;10.50;99.90
22779;DHT22;11556;51.194;3.800;2023-04-01T06:01:36;10.60;99.90
22779;DHT22;11556;51.194;3.800;2023-04-01T06:04:02;10.50;99.90
22779;DHT22;11556;51.194;3.800;2023-04-01T06:06:29;10.50;99.90
22779;DHT22;11556;51.194;3.800;2023-04-01T06:09:00;10.60;99.90
22779;DHT22;11556;51.194;3.800;2023-04-01T06:11:44;10.60;99.90
22779;DHT22;11556;51.194;3.800;2023-04-01T06:14:26;10.50;99.90
22779;DHT22;11556;51.194;3.800;2023-04-01T06:28:29;10.70;99.90
22779;DHT22;11556;51.194;3.800;2023-04-01T06:33:56;10.60;99.90
22779;DHT22;11556;51.194;3.800;2023-04-01T06:39:06;10.70;99.90
22779;DHT22;11556;51.194;3.800;2023-04-01T06:50:16;10.80;99.90
22779;DHT22;11556;51.194;3.800;2023-04-01T06:55:53;10.90;99.90
22779;DHT22;11556;51.194;3.800;2023-04-01T06:58:24;10.90;99.90
22779;DHT22;11556;51.194;3.800;2023-04-01T07:01:03;11.00;99.90
22779;DHT22;11556;51.194;3.800;2023-04-01T07:03:33;11.00;99.90
22779;DHT22;11556;51.194;3.800;2023-04-01T07:06:06;11.00;99.90
22779;DHT22;11556;51.194;3.800;2023-04-01T07:08:36;11.10;99.90
22779;DHT22;11556;51.194;3.800;2023-04-01T07:11:05;11.00;99.90
22779;DHT22;11556;51.194;3.800;2023-04-01T07:16:15;11.00;99.90
22779;DHT22;11556;51.194;3.800;2023-04-01T07:21:42;11.10;99.90
22779;DHT22;11556;51.194;3.800;2023-04-01T07:24:16;11.10;99.90
22779;DHT22;11556;51.194;3.800;2023-04-01T07:26:43;11.10;99.90
22779;DHT22;11556;51.194;3.800;2023-04-01T07:29:11;11.10;99.90
22779;DHT22;11556;51.194;3.800;2023-04-01T07:32:03;11.20;99.90
22779;DHT22;11556;51.194;3.800;2023-04-01T07:37:55;11.30;99.90
22779;DHT22;11556;51.194;3.800;2023-04-01T07:43:53;11.40;99.90
22779;DHT22;11556;51.194;3.800;2023-04-01T07:49:06;11.60;99.90
22779;DHT22;11556;51.194;3.800;2023-04-01T07:51:51;11.60;99.90
22779;DHT22;11556;51.194;3.800;2023-04-01T08:00:00;11.70;99.90
22779;DHT22;11556;51.194;3.800;2023-04-01T08:05:27;11.80;99.90
22779;DHT22;11556;51.194;3.800;2023-04-01T08:10:52;11.80;99.90
22779;DHT22;11556;51.194;3.800;2023-04-01T08:21:14;11.90;99.90
22779;DHT22;11556;51.194;3.800;2023-04-01T08:23:46;12.00;99.90
22779;DHT22;11556;51.194;3.800;2023-04-01T08:26:15;12.10;99.90
22779;DHT22;11556;51.194;3.800;2023-04-01T08:28:56;12.10;99.90
22779;DHT22;11556;51.194;3.800;2023-04-01T08:31:45;12.30;99.90
22779;DHT22;11556;51.194;3.800;2023-04-01T08:34:20;12.30;99.90
22779;DHT22;11556;51.194;3.800;2023-04-01T08:36:54;12.20;99.90
22779;DHT22;11556;51.194;3.800;2023-04-01T08:39:44;12.20;99.90
22779;DHT22;11556;51.194;3.800;2023-04-01T08:45:14;12.40;99.90
22779;DHT22;11556;51.194;3.800;2023-04-01T09:01:21;12.40;99.90
22779;DHT22;11556;51.194;3.800;2023-04-01T09:35:45;12.20;99.90
22779;DHT22;11556;51.194;3.800;2023-04-01T09:46:12;12.30;99.90
22779;DHT22;11556;51.194;3.800;2023-04-01T09:54:36;12.20;99.90
22779;DHT22;11556;51.194;3.800;2023-04-01T10:11:28;12.40;99.90
22779;DHT22;11556;51.194;3.800;2023-04-01T10:16:59;12.50;99.90
22779;DHT22;11556;51.194;3.800;2023-04-01T10:19:55;12.60;99.90
22779;DHT22;11556;51.194;3.800;2023-04-01T10:33:08;12.50;99.90
22779;DHT22;11556;51.194;3.800;2023-04-01T10:35:54;12.50;99.90
22779;DHT22;11556;51.194;3.800;2023-04-01T10:50:04;13.00;99.90
22779;DHT22;11556;51.194;3.800;2023-04-01T10:52:53;13.10;99.90
22779;DHT22;11556;51.194;3.800;2023-04-01T10:55:55;13.20;99.90
22779;DHT22;11556;51.194;3.800;2023-04-01T10:59:42;13.40;99.90
22779;DHT22;11556;51.194;3.800;2023-04-01T11:27:11;13.30;99.90
22779;DHT22;11556;51.194;3.800;2023-04-01T11:29:45;13.20;99.90
22779;DHT22;11556;51.194;3.800;2023-04-01T11:35:32;13.10;99.90
22779;DHT22;11556;51.194;3.800;2023-04-01T11:38:14;13.00;99.90
22779;DHT22;11556;51.194;3.800;2023-04-01T11:43:41;13.00;99.90
22779;DHT22;11556;51.194;3.800;2023-04-01T11:46:12;12.90;99.90
22779;DHT22;11556;51.194;3.800;2023-04-01T12:13:59;13.00;99.90
22779;DHT22;11556;51.194;3.800;2023-04-01T12:19:48;13.00;99.90
22779;DHT22;11556;51.194;3.800;2023-04-01T12:25:45;13.30;99.90
22779;DHT22;11556;51.194;3.800;2023-04-01T12:30:54;13.50;99.90
22779;DHT22;11556;51.194;3.800;2023-04-01T12:33:34;13.50;99.90
22779;DHT22;11556;51.194;3.800;2023-04-01T12:36:22;13.40;99.90
22779;DHT22;11556;51.194;3.800;2023-04-01T12:39:20;13.30;99.90
22779;DHT22;11556;51.194;3.800;2023-04-01T12:44:23;13.20;99.90
22779;DHT22;11556;51.194;3.800;2023-04-01T12:49:55;13.10;99.90
22779;DHT22;11556;51.194;3.800;2023-04-01T13:03:52;12.90;99.90
22779;DHT22;11556;51.194;3.800;2023-04-01T13:14:33;12.60;99.90
22779;DHT22;11556;51.194;3.800;2023-04-01T13:23:10;12.50;99.90
22779;DHT22;11556;51.194;3.800;2023-04-01T13:25:54;12.60;99.90
22779;DHT22;11556;51.194;3.800;2023-04-01T13:39:56;12.70;99.90
22779;DHT22;11556;51.194;3.800;2023-04-01T13:42:43;12.60;99.90
22779;DHT22;11556;51.194;3.800;2023-04-01T13:45:20;12.60;99.90
22779;DHT22;11556;51.194;3.800;2023-04-01T13:48:14;12.60;99.90
22779;DHT22;11556;51.194;3.800;2023-04-01T13:51:12;12.60;99.90
22779;DHT22;11556;51.194;3.800;2023-04-01T14:10:53;13.30;99.90
22779;DHT22;11556;51.194;3.800;2023-04-01T14:19:08;13.70;99.90
22779;DHT22;11556;51.194;3.800;2023-04-01T14:27:24;13.40;99.90
22779;DHT22;11556;51.194;3.800;2023-04-01T14:38:17;13.50;99.90
22779;DHT22;11556;51.194;3.800;2023-04-01T14:49:05;13.50;99.90
22779;DHT22;11556;51.194;3.800;2023-04-01T14:51:40;13.40;99.90
22779;DHT22;11556;51.194;3.800;2023-04-01T14:57:14;13.20;99.90
22779;DHT22;11556;51.194;3.800;2023-04-01T14:59:59;13.10;99.90
22779;DHT22;11556;51.194;3.800;2023-04-01T15:03:18;13.00;99.90
22779;DHT22;11556;51.194;3.800;2023-04-01T15:05:55;12.90;99.90
22779;DHT22;11556;51.194;3.800;2023-04-01T15:11:10;12.90;99.90
22779;DHT22;11556;51.194;3.800;2023-04-01T15:14:26;12.90;99.90
22779;DHT22;11556;51.194;3.800;2023-04-01T15:16:39;12.90;99.90
22779;DHT22;11556;51.194;3.800;2023-04-01T15:38:37;12.20;99.90
22779;DHT22;11556;51.194;3.800;2023-04-01T15:41:24;12.10;99.90
22779;DHT22;11556;51.194;3.800;2023-04-01T15:43:52;12.00;99.90
22779;DHT22;11556;51.194;3.800;2023-04-01T15:54:38;12.30;99.90
22779;DHT22;11556;51.194;3.800;2023-04-01T15:57:20;12.30;99.90
22779;DHT22;11556;51.194;3.800;2023-04-01T16:14:28;12.30;99.90
22779;DHT22;11556;51.194;3.800;2023-04-01T16:22:14;12.10;99.90
22779;DHT22;11556;51.194;3.800;2023-04-01T16:32:43;11.60;99.90
22779;DHT22;11556;51.194;3.800;2023-04-01T16:38:18;11.40;99.90
22779;DHT22;11556;51.194;3.800;2023-04-01T16:41:11;11.20;99.90
22779;DHT22;11556;51.194;3.800;2023-04-01T16:43:45;11.10;99.90
22779;DHT22;11556;51.194;3.800;2023-04-01T16:51:52;11.20;99.90
22779;DHT22;11556;51.194;3.800;2023-04-01T16:54:34;11.10;99.90
22779;DHT22;11556;51.194;3.800;2023-04-01T16:59:35;11.00;99.90
22779;DHT22;11556;51.194;3.800;2023-04-01T17:17:58;10.90;99.90
22779;DHT22;11556;51.194;3.800;2023-04-01T17:20:27;10.90;99.90
22779;DHT22;11556;51.194;3.800;2023-04-01T17:34:14;10.70;99.90
22779;DHT22;11556;51.194;3.800;2023-04-01T17:40:04;10.70;99.90
22779;DHT22;11556;51.194;3.800;2023-04-01T17:45:30;10.80;99.90
22779;DHT22;11556;51.194;3.800;2023-04-01T17:49:11;10.70;99.90
22779;DHT22;11556;51.194;3.800;2023-04-01T17:54:15;10.70;99.90
22779;DHT22;11556;51.194;3.800;2023-04-01T17:59:38;10.50;99.90
22779;DHT22;11556;51.194;3.800;2023-04-01T18:02:29;10.40;99.90
22779;DHT22;11556;51.194;3.800;2023-04-01T18:07:51;10.40;99.90
22779;DHT22;11556;51.194;3.800;2023-04-01T18:18:46;10.40;99.90
22779;DHT22;11556;51.194;3.800;2023-04-01T18:22:03;10.40;99.90
22779;DHT22;11556;51.194;3.800;2023-04-01T18:27:15;10.30;99.90
22779;DHT22;11556;51.194;3.800;2023-04-01T18:32:52;10.30;99.90
22779;DHT22;11556;51.194;3.800;2023-04-01T18:36:19;10.30;99.90
22779;DHT22;11556;51.194;3.800;2023-04-01T18:38:39;10.30;99.90
22779;DHT22;11556;51.194;3.800;2023-04-01T18:50:27;10.30;99.90
22779;DHT22;11556;51.194;3.800;2023-04-01T18:56:15;10.20;99.90
22779;DHT22;11556;51.194;3.800;2023-04-01T19:07:01;10.30;99.90
22779;DHT22;11556;51.194;3.800;2023-04-01T19:09:44;10.30;99.90
22779;DHT22;11556;51.194;3.800;2023-04-01T19:17:56;10.30;99.90
22779;DHT22;11556;51.194;3.800;2023-04-01T19:21:16;10.20;99.90
22779;DHT22;11556;51.194;3.800;2023-04-01T19:31:40;10.40;99.90
22779;DHT22;11556;51.194;3.800;2023-04-01T19:37:04;10.40;99.90
22779;DHT22;11556;51.194;3.800;2023-04-01T19:45:26;10.20;99.90
22779;DHT22;11556;51.194;3.800;2023-04-01T19:48:14;10.20;99.90
22779;DHT22;11556;51.194;3.800;2023-04-01T19:50:55;10.20;99.90
22779;DHT22;11556;51.194;3.800;2023-04-01T19:53:31;10.20;99.90
22779;DHT22;11556;51.194;3.800;2023-04-01T19:58:56;10.30;99.90
22779;DHT22;11556;51.194;3.800;2023-04-01T20:01:26;10.30;99.90
22779;DHT22;11556;51.194;3.800;2023-04-01T20:04:03;10.30;99.90
22779;DHT22;11556;51.194;3.800;2023-04-01T20:14:30;10.30;99.90
22779;DHT22;11556;51.194;3.800;2023-04-01T20:17:11;10.30;99.90
22779;DHT22;11556;51.194;3.800;2023-04-01T20:25:40;10.30;99.90
22779;DHT22;11556;51.194;3.800;2023-04-01T20:28:21;10.30;99.90
22779;DHT22;11556;51.194;3.800;2023-04-01T20:36:26;10.20;99.90
22779;DHT22;11556;51.194;3.800;2023-04-01T20:47:40;10.30;99.90
22779;DHT22;11556;51.194;3.800;2023-04-01T20:53:15;10.40;99.90
22779;DHT22;11556;51.194;3.800;2023-04-01T21:04:33;10.40;99.90
22779;DHT22;11556;51.194;3.800;2023-04-01T21:17:48;10.50;99.90
22779;DHT22;11556;51.194;3.800;2023-04-01T21:20:44;10.40;99.90
22779;DHT22;11556;51.194;3.800;2023-04-01T21:31:42;10.40;99.90
22779;DHT22;11556;51.194;3.800;2023-04-01T21:59:31;10.30;99.90
22779;DHT22;11556;51.194;3.800;2023-04-01T22:07:33;10.20;99.90
22779;DHT22;11556;51.194;3.800;2023-04-01T22:11:19;10.20;99.90
22779;DHT22;11556;51.194;3.800;2023-04-01T22:14:02;10.10;99.90
22779;DHT22;11556;51.194;3.800;2023-04-01T22:17:00;10.10;99.90
22779;DHT22;11556;51.194;3.800;2023-04-01T22:22:22;10.00;99.90
22779;DHT22;11556;51.194;3.800;2023-04-01T22:30:13;10.10;99.90
22779;DHT22;11556;51.194;3.800;2023-04-01T22:32:45;10.10;99.90
22779;DHT22;11556;51.194;3.800;2023-04-01T22:40:45;10.00;99.90
22779;DHT22;11556;51.194;3.800;2023-04-01T22:43:36;10.00;99.90
22779;DHT22;11556;51.194;3.800;2023-04-01T22:46:23;10.10;99.90
22779;DHT22;11556;51.194;3.800;2023-04-01T22:49:16;10.00;99.90
22779;DHT22;11556;51.194;3.800;2023-04-01T22:51:48;10.00;99.90
22779;DHT22;11556;51.194;3.800;2023-04-01T22:54:18;10.10;99.90
22779;DHT22;11556;51.194;3.800;2023-04-01T22:56:50;10.10;99.90
22779;DHT22;11556;51.194;3.800;2023-04-01T23:02:24;10.10;99.90
22779;DHT22;11556;51.194;3.800;2023-04-01T23:04:54;10.10;99.90
22779;DHT22;11556;51.194;3.800;2023-04-01T23:10:16;10.00;99.90
22779;DHT22;11556;51.194;3.800;2023-04-01T23:12:42;10.00;99.90
22779;DHT22;11556;51.194;3.800;2023-04-01T23:15:14;10.00;99.90
22779;DHT22;11556;51.194;3.800;2023-04-01T23:17:51;9.80;99.90
22779;DHT22;11556;51.194;3.800;2023-04-01T23:20:29;9.90;99.90
22779;DHT22;11556;51.194;3.800;2023-04-01T23:23:07;9.80;99.90
22779;DHT22;11556;51.194;3.800;2023-04-01T23:31:25;9.90;99.90
22779;DHT22;11556;51.194;3.800;2023-04-01T23:33:56;10.00;99.90
22779;DHT22;11556;51.194;3.800;2023-04-01T23:36:22;9.90;99.90
22779;DHT22;11556;51.194;3.800;2023-04-01T23:38:49;10.00;99.90
22779;DHT22;11556;51.194;3.800;2023-04-01T23:41:31;10.00;99.90
22779;DHT22;11556;51.194;3.800;2023-04-01T23:44:10;9.90;99.90
22779;DHT22;11556;51.194;3.800;2023-04-01T23:46:37;9.80;99.90
22779;DHT22;11556;51.194;3.800;2023-04-01T23:49:08;9.70;99.90
22779;DHT22;11556;51.194;3.800;2023-04-01T23:51:39;9.70;99.90
22779;DHT22;11556;51.194;3.800;2023-04-01T23:54:48;9.70;99.90
22779;DHT22;11556;51.194;3.800;2023-04-01T23:57:19;9.80;99.90
